sensor_id;sensor_type;location;lat;lon;timestamp;pressure;altitude;pressure_sealevel;temperature;humidity
21504;BME280;10913;51.992;9.228;2023-02-26T00:01:54;100283.75;;;0.93;86.53
21504;BME280;10913;51.992;9.228;2023-02-26T00:04:22;100285.50;;;0.94;87.19
21504;BME280;10913;51.992;9.228;2023-02-26T00:06:47;100281.94;;;0.91;87.27
21504;BME280;10913;51.992;9.228;2023-02-26T00:09:20;100283.66;;;0.90;86.96
21504;BME280;10913;51.992;9.228;2023-02-26T00:11:45;100288.78;;;0.89;87.27
21504;BME280;10913;51.992;9.228;2023-02-26T00:14:13;100291.41;;;0.89;87.25
21504;BME280;10913;51.992;9.228;2023-02-26T00:16:39;100298.25;;;0.87;87.31
21504;BME280;10913;51.992;9.228;2023-02-26T00:19:07;100296.38;;;0.83;87.72
21504;BME280;10913;51.992;9.228;2023-02-26T00:21:34;100303.41;;;0.85;88.00
21504;BME280;10913;51.992;9.228;2023-02-26T00:24:00;100305.91;;;0.82;88.02
21504;BME280;10913;51.992;9.228;2023-02-26T00:26:28;100312.03;;;0.84;88.06
21504;BME280;10913;51.992;9.228;2023-02-26T00:28:55;100312.78;;;0.80;88.02
21504;BME280;10913;51.992;9.228;2023-02-26T00:31:21;100310.16;;;0.80;88.10
21504;BME280;10913;51.992;9.228;2023-02-26T00:33:51;100322.31;;;0.80;88.26
21504;BME280;10913;51.992;9.228;2023-02-26T00:36:23;100319.56;;;0.75;87.94
21504;BME280;10913;51.992;9.228;2023-02-26T00:39:16;100322.88;;;0.71;88.29
21504;BME280;10913;51.992;9.228;2023-02-26T00:41:46;100317.53;;;0.66;88.46
21504;BME280;10913;51.992;9.228;2023-02-26T00:44:11;100326.22;;;0.67;88.61
21504;BME280;10913;51.992;9.228;2023-02-26T00:46:44;100329.66;;;0.66;88.58
21504;BME280;10913;51.992;9.228;2023-02-26T00:51:51;100332.97;;;0.62;88.59
21504;BME280;10913;51.992;9.228;2023-02-26T00:54:27;100343.28;;;0.59;88.92
21504;BME280;10913;51.992;9.228;2023-02-26T00:56:54;100347.50;;;0.55;89.34
21504;BME280;10913;51.992;9.228;2023-02-26T00:59:20;100346.66;;;0.56;89.44
21504;BME280;10913;51.992;9.228;2023-02-26T01:01:46;100349.25;;;0.56;89.55
21504;BME280;10913;51.992;9.228;2023-02-26T01:04:14;100350.16;;;0.57;89.88
21504;BME280;10913;51.992;9.228;2023-02-26T01:06:46;100352.00;;;0.61;89.67
21504;BME280;10913;51.992;9.228;2023-02-26T01:11:40;100355.53;;;0.63;89.79
21504;BME280;10913;51.992;9.228;2023-02-26T01:14:06;100351.22;;;0.63;90.01
21504;BME280;10913;51.992;9.228;2023-02-26T01:16:39;100352.22;;;0.67;89.70
21504;BME280;10913;51.992;9.228;2023-02-26T01:21:46;100361.84;;;0.69;89.86
21504;BME280;10913;51.992;9.228;2023-02-26T01:24:14;100361.84;;;0.69;89.46
21504;BME280;10913;51.992;9.228;2023-02-26T01:26:41;100372.13;;;0.66;90.09
21504;BME280;10913;51.992;9.228;2023-02-26T01:29:06;100362.59;;;0.67;90.25
21504;BME280;10913;51.992;9.228;2023-02-26T01:31:49;100368.69;;;0.67;90.02
21504;BME280;10913;51.992;9.228;2023-02-26T01:34:23;100367.13;;;0.73;89.76
21504;BME280;10913;51.992;9.228;2023-02-26T01:39:44;100365.38;;;0.72;89.55
21504;BME280;10913;51.992;9.228;2023-02-26T01:44:52;100364.59;;;0.74;90.11
21504;BME280;10913;51.992;9.228;2023-02-26T01:47:32;100369.78;;;0.74;90.16
21504;BME280;10913;51.992;9.228;2023-02-26T01:50:19;100369.78;;;0.74;90.07
21504;BME280;10913;51.992;9.228;2023-02-26T01:55:24;100373.31;;;0.76;90.13
21504;BME280;10913;51.992;9.228;2023-02-26T01:57:52;100373.00;;;0.67;90.29
21504;BME280;10913;51.992;9.228;2023-02-26T02:00:20;100375.66;;;0.68;90.17
21504;BME280;10913;51.992;9.228;2023-02-26T02:02:46;100377.31;;;0.66;90.55
21504;BME280;10913;51.992;9.228;2023-02-26T02:05:16;100385.00;;;0.63;90.39
21504;BME280;10913;51.992;9.228;2023-02-26T02:07:45;100385.75;;;0.59;90.80
21504;BME280;10913;51.992;9.228;2023-02-26T02:10:11;100383.94;;;0.57;90.53
21504;BME280;10913;51.992;9.228;2023-02-26T02:15:13;100386.41;;;0.54;91.17
21504;BME280;10913;51.992;9.228;2023-02-26T02:18:57;100386.31;;;0.51;91.00
21504;BME280;10913;51.992;9.228;2023-02-26T02:24:04;100408.47;;;0.41;91.58
21504;BME280;10913;51.992;9.228;2023-02-26T02:26:52;100406.72;;;0.40;91.48
21504;BME280;10913;51.992;9.228;2023-02-26T02:32:27;100418.94;;;0.43;91.42
21504;BME280;10913;51.992;9.228;2023-02-26T02:35:17;100419.81;;;0.43;91.64
21504;BME280;10913;51.992;9.228;2023-02-26T02:40:22;100416.50;;;0.47;91.79
21504;BME280;10913;51.992;9.228;2023-02-26T02:42:54;100435.63;;;0.49;91.88
21504;BME280;10913;51.992;9.228;2023-02-26T02:45:39;100430.44;;;0.49;91.82
21504;BME280;10913;51.992;9.228;2023-02-26T02:48:13;100438.19;;;0.48;91.87
21504;BME280;10913;51.992;9.228;2023-02-26T02:50:45;100427.78;;;0.48;92.16
21504;BME280;10913;51.992;9.228;2023-02-26T02:53:25;100436.56;;;0.51;92.04
21504;BME280;10913;51.992;9.228;2023-02-26T02:55:58;100439.94;;;0.49;92.27
21504;BME280;10913;51.992;9.228;2023-02-26T02:58:34;100431.22;;;0.47;92.54
21504;BME280;10913;51.992;9.228;2023-02-26T03:01:04;100432.88;;;0.45;92.59
21504;BME280;10913;51.992;9.228;2023-02-26T03:03:37;100432.88;;;0.45;92.61
21504;BME280;10913;51.992;9.228;2023-02-26T03:06:04;100442.31;;;0.43;92.68
21504;BME280;10913;51.992;9.228;2023-02-26T03:08:35;100444.91;;;0.43;92.78
21504;BME280;10913;51.992;9.228;2023-02-26T03:11:01;100449.28;;;0.44;92.77
21504;BME280;10913;51.992;9.228;2023-02-26T03:13:27;100451.13;;;0.46;92.81
21504;BME280;10913;51.992;9.228;2023-02-26T03:21:58;100459.47;;;0.38;92.89
21504;BME280;10913;51.992;9.228;2023-02-26T03:32:35;100482.75;;;0.34;93.43
21504;BME280;10913;51.992;9.228;2023-02-26T03:35:17;100491.44;;;0.35;93.40
21504;BME280;10913;51.992;9.228;2023-02-26T03:37:44;100486.94;;;0.31;93.62
21504;BME280;10913;51.992;9.228;2023-02-26T03:40:15;100486.13;;;0.32;93.70
21504;BME280;10913;51.992;9.228;2023-02-26T03:42:47;100489.78;;;0.37;93.65
21504;BME280;10913;51.992;9.228;2023-02-26T03:45:25;100498.34;;;0.34;93.66
21504;BME280;10913;51.992;9.228;2023-02-26T03:47:52;100498.34;;;0.34;93.34
21504;BME280;10913;51.992;9.228;2023-02-26T03:50:40;100501.63;;;0.30;93.36
21504;BME280;10913;51.992;9.228;2023-02-26T03:53:11;100506.84;;;0.30;93.53
21504;BME280;10913;51.992;9.228;2023-02-26T03:55:54;100504.13;;;0.27;93.48
21504;BME280;10913;51.992;9.228;2023-02-26T03:58:22;100519.72;;;0.27;93.79
21504;BME280;10913;51.992;9.228;2023-02-26T04:00:53;100525.72;;;0.26;93.64
21504;BME280;10913;51.992;9.228;2023-02-26T04:03:28;100525.59;;;0.23;94.04
21504;BME280;10913;51.992;9.228;2023-02-26T04:05:58;100529.81;;;0.20;94.22
21504;BME280;10913;51.992;9.228;2023-02-26T04:08:24;100532.44;;;0.21;94.14
21504;BME280;10913;51.992;9.228;2023-02-26T04:10:58;100540.31;;;0.23;93.93
21504;BME280;10913;51.992;9.228;2023-02-26T04:13:27;100549.81;;;0.22;93.89
21504;BME280;10913;51.992;9.228;2023-02-26T04:15:53;100547.22;;;0.22;94.04
21504;BME280;10913;51.992;9.228;2023-02-26T04:18:18;100549.81;;;0.22;93.89
21504;BME280;10913;51.992;9.228;2023-02-26T04:20:43;100550.59;;;0.20;94.15
21504;BME280;10913;51.992;9.228;2023-02-26T04:23:09;100558.34;;;0.18;94.45
21504;BME280;10913;51.992;9.228;2023-02-26T04:25:34;100559.31;;;0.22;94.11
21504;BME280;10913;51.992;9.228;2023-02-26T04:28:00;100561.97;;;0.23;93.93
21504;BME280;10913;51.992;9.228;2023-02-26T04:30:25;100568.94;;;0.24;93.87
21504;BME280;10913;51.992;9.228;2023-02-26T04:32:50;100566.28;;;0.23;94.00
21504;BME280;10913;51.992;9.228;2023-02-26T04:35:16;100565.47;;;0.24;93.94
21504;BME280;10913;51.992;9.228;2023-02-26T04:37:41;100576.75;;;0.24;93.92
21504;BME280;10913;51.992;9.228;2023-02-26T04:40:07;100577.56;;;0.23;93.87
21504;BME280;10913;51.992;9.228;2023-02-26T04:42:33;100581.94;;;0.24;93.95
21504;BME280;10913;51.992;9.228;2023-02-26T04:44:58;100581.81;;;0.21;94.09
21504;BME280;10913;51.992;9.228;2023-02-26T04:47:23;100586.09;;;0.19;94.26
21504;BME280;10913;51.992;9.228;2023-02-26T04:49:49;100585.19;;;0.19;94.14
21504;BME280;10913;51.992;9.228;2023-02-26T04:52:14;100586.03;;;0.18;94.24
21504;BME280;10913;51.992;9.228;2023-02-26T04:54:40;100587.75;;;0.17;94.26
21504;BME280;10913;51.992;9.228;2023-02-26T04:57:05;100593.88;;;0.19;94.20
21504;BME280;10913;51.992;9.228;2023-02-26T04:59:31;100601.69;;;0.19;93.82
21504;BME280;10913;51.992;9.228;2023-02-26T05:01:56;100600.00;;;0.21;94.22
21504;BME280;10913;51.992;9.228;2023-02-26T05:04:22;100606.91;;;0.21;94.34
21504;BME280;10913;51.992;9.228;2023-02-26T05:06:47;100608.59;;;0.20;94.42
21504;BME280;10913;51.992;9.228;2023-02-26T05:09:12;100611.19;;;0.19;94.55
21504;BME280;10913;51.992;9.228;2023-02-26T05:11:38;100612.94;;;0.20;94.54
21504;BME280;10913;51.992;9.228;2023-02-26T05:14:03;100609.41;;;0.18;94.24
21504;BME280;10913;51.992;9.228;2023-02-26T05:16:29;100616.38;;;0.19;94.42
21504;BME280;10913;51.992;9.228;2023-02-26T05:18:54;100620.78;;;0.21;94.28
21504;BME280;10913;51.992;9.228;2023-02-26T05:21:19;100629.38;;;0.20;94.56
21504;BME280;10913;51.992;9.228;2023-02-26T05:23:46;100623.97;;;0.14;94.64
21504;BME280;10913;51.992;9.228;2023-02-26T05:26:11;100634.38;;;0.14;94.60
21504;BME280;10913;51.992;9.228;2023-02-26T05:28:37;100635.25;;;0.15;95.12
21504;BME280;10913;51.992;9.228;2023-02-26T05:31:02;100641.34;;;0.15;94.61
21504;BME280;10913;51.992;9.228;2023-02-26T05:33:28;100646.53;;;0.15;94.79
21504;BME280;10913;51.992;9.228;2023-02-26T05:35:53;100643.94;;;0.15;94.62
21504;BME280;10913;51.992;9.228;2023-02-26T05:38:19;100651.72;;;0.15;94.47
21504;BME280;10913;51.992;9.228;2023-02-26T05:40:44;100654.19;;;0.12;94.45
21504;BME280;10913;51.992;9.228;2023-02-26T05:43:10;100653.25;;;0.10;94.84
21504;BME280;10913;51.992;9.228;2023-02-26T05:45:35;100662.81;;;0.11;94.48
21504;BME280;10913;51.992;9.228;2023-02-26T05:48:00;100677.69;;;0.15;94.38
21504;BME280;10913;51.992;9.228;2023-02-26T05:50:26;100674.16;;;0.13;94.55
21504;BME280;10913;51.992;9.228;2023-02-26T05:52:51;100675.84;;;0.13;94.28
21504;BME280;10913;51.992;9.228;2023-02-26T05:55:17;100677.56;;;0.12;93.96
21504;BME280;10913;51.992;9.228;2023-02-26T05:57:43;100688.09;;;0.15;93.88
21504;BME280;10913;51.992;9.228;2023-02-26T06:00:09;100688.97;;;0.16;93.67
21504;BME280;10913;51.992;9.228;2023-02-26T06:02:34;100685.44;;;0.14;93.94
21504;BME280;10913;51.992;9.228;2023-02-26T06:05:00;100692.34;;;0.13;93.53
21504;BME280;10913;51.992;9.228;2023-02-26T06:07:25;100703.69;;;0.15;93.45
21504;BME280;10913;51.992;9.228;2023-02-26T06:09:51;100702.84;;;0.16;93.23
21504;BME280;10913;51.992;9.228;2023-02-26T06:12:16;100707.22;;;0.17;93.45
21504;BME280;10913;51.992;9.228;2023-02-26T06:14:41;100709.00;;;0.18;93.08
21504;BME280;10913;51.992;9.228;2023-02-26T06:17:07;100708.94;;;0.17;92.91
21504;BME280;10913;51.992;9.228;2023-02-26T06:19:32;100716.72;;;0.17;92.84
21504;BME280;10913;51.992;9.228;2023-02-26T06:21:58;100717.69;;;0.19;92.48
21504;BME280;10913;51.992;9.228;2023-02-26T06:24:23;100727.06;;;0.15;91.96
21504;BME280;10913;51.992;9.228;2023-02-26T06:26:49;100733.91;;;0.13;91.95
21504;BME280;10913;51.992;9.228;2023-02-26T06:29:15;100741.69;;;0.13;91.72
21504;BME280;10913;51.992;9.228;2023-02-26T06:31:42;100752.91;;;0.12;91.64
21504;BME280;10913;51.992;9.228;2023-02-26T06:34:08;100747.56;;;0.09;91.84
21504;BME280;10913;51.992;9.228;2023-02-26T06:36:33;100763.22;;;0.11;91.75
21504;BME280;10913;51.992;9.228;2023-02-26T06:38:58;100764.19;;;0.13;91.54
21504;BME280;10913;51.992;9.228;2023-02-26T06:41:24;100766.69;;;0.11;91.12
21504;BME280;10913;51.992;9.228;2023-02-26T06:43:49;100773.00;;;0.16;90.81
21504;BME280;10913;51.992;9.228;2023-02-26T06:46:15;100775.66;;;0.18;90.69
21504;BME280;10913;51.992;9.228;2023-02-26T06:48:40;100774.75;;;0.17;90.74
21504;BME280;10913;51.992;9.228;2023-02-26T06:51:06;100787.84;;;0.20;90.34
21504;BME280;10913;51.992;9.228;2023-02-26T06:53:34;100794.16;;;0.25;90.38
21504;BME280;10913;51.992;9.228;2023-02-26T06:56:04;100788.34;;;0.52;89.43
21504;BME280;10913;51.992;9.228;2023-02-26T06:58:29;100789.00;;;0.89;88.49
21504;BME280;10913;51.992;9.228;2023-02-26T07:00:55;100784.56;;;1.78;86.44
21504;BME280;10913;51.992;9.228;2023-02-26T07:03:20;100783.19;;;2.90;82.05
21504;BME280;10913;51.992;9.228;2023-02-26T07:05:49;100791.38;;;3.58;78.76
21504;BME280;10913;51.992;9.228;2023-02-26T07:08:15;100793.16;;;3.90;76.82
21504;BME280;10913;51.992;9.228;2023-02-26T07:10:41;100796.56;;;3.88;75.69
21504;BME280;10913;51.992;9.228;2023-02-26T07:13:07;100795.88;;;3.63;76.15
21504;BME280;10913;51.992;9.228;2023-02-26T07:15:32;100805.06;;;3.79;75.34
21504;BME280;10913;51.992;9.228;2023-02-26T07:17:58;100808.72;;;3.86;75.37
21504;BME280;10913;51.992;9.228;2023-02-26T07:20:27;100814.09;;;3.62;75.38
21504;BME280;10913;51.992;9.228;2023-02-26T07:22:53;100817.28;;;3.23;75.91
21504;BME280;10913;51.992;9.228;2023-02-26T07:25:19;100811.94;;;2.92;76.68
21504;BME280;10913;51.992;9.228;2023-02-26T07:27:45;100815.38;;;2.64;77.40
21504;BME280;10913;51.992;9.228;2023-02-26T07:30:11;100823.13;;;3.15;77.98
21504;BME280;10913;51.992;9.228;2023-02-26T07:32:37;100832.19;;;4.47;75.62
21504;BME280;10913;51.992;9.228;2023-02-26T07:35:03;100819.22;;;6.47;70.75
21504;BME280;10913;51.992;9.228;2023-02-26T07:37:28;100815.59;;;8.14;65.25
21504;BME280;10913;51.992;9.228;2023-02-26T07:39:54;100821.56;;;7.99;63.23
21504;BME280;10913;51.992;9.228;2023-02-26T07:42:19;100822.16;;;7.16;64.71
21504;BME280;10913;51.992;9.228;2023-02-26T07:44:45;100835.53;;;6.29;65.67
21504;BME280;10913;51.992;9.228;2023-02-26T07:47:11;100845.13;;;5.47;67.44
21504;BME280;10913;51.992;9.228;2023-02-26T07:49:37;100848.06;;;4.88;68.87
21504;BME280;10913;51.992;9.228;2023-02-26T07:52:02;100860.78;;;4.39;70.29
21504;BME280;10913;51.992;9.228;2023-02-26T07:54:28;100864.56;;;3.89;71.51
21504;BME280;10913;51.992;9.228;2023-02-26T07:56:53;100872.75;;;3.71;72.12
21504;BME280;10913;51.992;9.228;2023-02-26T07:59:19;100879.75;;;3.44;73.50
21504;BME280;10913;51.992;9.228;2023-02-26T08:01:45;100880.00;;;3.25;74.31
21504;BME280;10913;51.992;9.228;2023-02-26T08:04:10;100881.41;;;3.14;74.45
21504;BME280;10913;51.992;9.228;2023-02-26T08:06:36;100880.25;;;3.05;74.86
21504;BME280;10913;51.992;9.228;2023-02-26T08:09:02;100883.59;;;3.01;75.25
21504;BME280;10913;51.992;9.228;2023-02-26T08:11:27;100880.22;;;3.31;75.11
21504;BME280;10913;51.992;9.228;2023-02-26T08:13:53;100891.31;;;3.80;73.78
21504;BME280;10913;51.992;9.228;2023-02-26T08:16:18;100896.41;;;4.06;72.83
21504;BME280;10913;51.992;9.228;2023-02-26T08:18:44;100898.00;;;4.01;72.84
21504;BME280;10913;51.992;9.228;2023-02-26T08:21:09;100899.78;;;3.72;73.11
21504;BME280;10913;51.992;9.228;2023-02-26T08:23:35;100900.09;;;3.54;73.71
21504;BME280;10913;51.992;9.228;2023-02-26T08:26:06;100908.31;;;3.38;74.39
21504;BME280;10913;51.992;9.228;2023-02-26T08:28:32;100915.81;;;3.29;74.65
21504;BME280;10913;51.992;9.228;2023-02-26T08:30:58;100922.56;;;3.22;75.10
21504;BME280;10913;51.992;9.228;2023-02-26T08:33:23;100913.59;;;3.14;75.14
21504;BME280;10913;51.992;9.228;2023-02-26T08:35:49;100930.94;;;3.12;75.36
21504;BME280;10913;51.992;9.228;2023-02-26T08:38:15;100937.66;;;3.05;75.40
21504;BME280;10913;51.992;9.228;2023-02-26T08:40:41;100927.00;;;2.98;75.40
21504;BME280;10913;51.992;9.228;2023-02-26T08:43:06;100943.53;;;2.98;75.91
21504;BME280;10913;51.992;9.228;2023-02-26T08:45:32;100947.06;;;3.00;75.95
21504;BME280;10913;51.992;9.228;2023-02-26T08:47:57;100953.72;;;3.16;75.86
21504;BME280;10913;51.992;9.228;2023-02-26T08:50:23;100951.47;;;3.54;75.22
21504;BME280;10913;51.992;9.228;2023-02-26T08:52:49;100946.03;;;5.66;72.28
21504;BME280;10913;51.992;9.228;2023-02-26T08:55:14;100943.44;;;8.64;65.02
21504;BME280;10913;51.992;9.228;2023-02-26T08:57:40;100918.66;;;11.57;58.27
21504;BME280;10913;51.992;9.228;2023-02-26T09:00:06;100917.56;;;13.74;52.91
21504;BME280;10913;51.992;9.228;2023-02-26T09:02:35;100909.59;;;15.14;49.22
21504;BME280;10913;51.992;9.228;2023-02-26T09:05:01;100915.75;;;15.73;47.90
21504;BME280;10913;51.992;9.228;2023-02-26T09:07:26;100925.63;;;15.11;48.07
21504;BME280;10913;51.992;9.228;2023-02-26T09:09:51;100932.66;;;15.70;47.49
21504;BME280;10913;51.992;9.228;2023-02-26T09:12:17;100929.66;;;16.35;46.61
21504;BME280;10913;51.992;9.228;2023-02-26T09:14:42;100928.81;;;17.16;45.44
21504;BME280;10913;51.992;9.228;2023-02-26T09:17:07;100925.81;;;17.64;44.35
21504;BME280;10913;51.992;9.228;2023-02-26T09:19:33;100938.16;;;16.97;43.82
21504;BME280;10913;51.992;9.228;2023-02-26T09:21:58;100945.53;;;16.41;45.19
21504;BME280;10913;51.992;9.228;2023-02-26T09:24:24;100943.53;;;16.52;45.08
21504;BME280;10913;51.992;9.228;2023-02-26T09:26:49;100950.53;;;16.99;44.81
21504;BME280;10913;51.992;9.228;2023-02-26T09:29:14;100953.03;;;17.07;44.23
21504;BME280;10913;51.992;9.228;2023-02-26T09:31:40;100947.59;;;17.48;44.19
21504;BME280;10913;51.992;9.228;2023-02-26T09:34:05;100953.78;;;17.86;43.05
21504;BME280;10913;51.992;9.228;2023-02-26T09:36:32;100952.19;;;17.42;43.51
21504;BME280;10913;51.992;9.228;2023-02-26T09:38:57;100960.47;;;16.03;44.25
21504;BME280;10913;51.992;9.228;2023-02-26T09:41:28;100963.28;;;14.80;45.45
21504;BME280;10913;51.992;9.228;2023-02-26T09:44:08;100975.41;;;13.37;47.11
21504;BME280;10913;51.992;9.228;2023-02-26T09:51:59;100993.47;;;10.83;52.04
21504;BME280;10913;51.992;9.228;2023-02-26T09:54:30;100988.16;;;10.74;52.12
21504;BME280;10913;51.992;9.228;2023-02-26T09:56:59;100997.94;;;11.07;52.38
21504;BME280;10913;51.992;9.228;2023-02-26T09:59:30;101004.13;;;11.04;52.09
21504;BME280;10913;51.992;9.228;2023-02-26T10:02:26;100988.19;;;10.77;51.16
21504;BME280;10913;51.992;9.228;2023-02-26T10:05:24;101006.75;;;11.01;52.32
21504;BME280;10913;51.992;9.228;2023-02-26T10:10:55;100997.09;;;11.09;51.79
21504;BME280;10913;51.992;9.228;2023-02-26T10:13:38;101005.69;;;10.50;51.52
21504;BME280;10913;51.992;9.228;2023-02-26T10:16:32;101017.78;;;10.15;51.80
21504;BME280;10913;51.992;9.228;2023-02-26T10:19:11;101009.22;;;10.55;52.49
21504;BME280;10913;51.992;9.228;2023-02-26T10:21:48;101013.78;;;11.00;51.38
21504;BME280;10913;51.992;9.228;2023-02-26T10:24:26;101013.00;;;11.27;50.74
21504;BME280;10913;51.992;9.228;2023-02-26T10:26:59;101011.25;;;11.51;50.48
21504;BME280;10913;51.992;9.228;2023-02-26T10:29:44;101012.19;;;11.86;50.81
21504;BME280;10913;51.992;9.228;2023-02-26T10:32:34;101019.22;;;12.18;50.46
21504;BME280;10913;51.992;9.228;2023-02-26T10:35:30;101013.94;;;11.95;49.16
21504;BME280;10913;51.992;9.228;2023-02-26T10:38:15;101019.19;;;11.45;50.18
21504;BME280;10913;51.992;9.228;2023-02-26T10:43:34;101030.56;;;11.07;50.92
21504;BME280;10913;51.992;9.228;2023-02-26T10:46:24;101036.72;;;10.97;50.84
21504;BME280;10913;51.992;9.228;2023-02-26T10:52:18;101024.31;;;10.76;51.62
21504;BME280;10913;51.992;9.228;2023-02-26T10:57:45;101042.03;;;11.11;52.52
21504;BME280;10913;51.992;9.228;2023-02-26T11:00:19;101045.59;;;11.22;52.14
21504;BME280;10913;51.992;9.228;2023-02-26T11:02:57;101039.34;;;10.91;52.40
21504;BME280;10913;51.992;9.228;2023-02-26T11:05:28;101052.41;;;10.65;52.90
21504;BME280;10913;51.992;9.228;2023-02-26T11:08:03;101053.91;;;10.22;53.14
21504;BME280;10913;51.992;9.228;2023-02-26T11:10:49;101054.41;;;9.72;54.08
21504;BME280;10913;51.992;9.228;2023-02-26T11:13:16;101050.88;;;8.90;55.52
21504;BME280;10913;51.992;9.228;2023-02-26T11:15:46;101051.41;;;8.63;55.75
21504;BME280;10913;51.992;9.228;2023-02-26T11:18:20;101055.63;;;8.50;55.65
21504;BME280;10913;51.992;9.228;2023-02-26T11:20:47;101047.41;;;8.29;57.07
21504;BME280;10913;51.992;9.228;2023-02-26T11:23:17;101047.22;;;8.15;57.29
21504;BME280;10913;51.992;9.228;2023-02-26T11:26:18;101053.97;;;8.00;56.77
21504;BME280;10913;51.992;9.228;2023-02-26T11:28:46;101052.94;;;7.90;56.85
21504;BME280;10913;51.992;9.228;2023-02-26T11:31:16;101050.88;;;7.71;57.42
21504;BME280;10913;51.992;9.228;2023-02-26T11:34:07;101056.63;;;7.50;57.70
21504;BME280;10913;51.992;9.228;2023-02-26T11:36:46;101054.13;;;7.56;57.93
21504;BME280;10913;51.992;9.228;2023-02-26T11:39:38;101054.69;;;7.40;57.59
21504;BME280;10913;51.992;9.228;2023-02-26T11:42:12;101059.13;;;7.42;57.31
21504;BME280;10913;51.992;9.228;2023-02-26T11:44:41;101070.88;;;7.63;57.16
21504;BME280;10913;51.992;9.228;2023-02-26T11:47:24;101068.28;;;7.64;57.62
21504;BME280;10913;51.992;9.228;2023-02-26T11:49:55;101067.34;;;7.62;56.93
21504;BME280;10913;51.992;9.228;2023-02-26T11:52:34;101056.13;;;7.71;56.69
21504;BME280;10913;51.992;9.228;2023-02-26T11:55:17;101066.78;;;7.78;55.87
21504;BME280;10913;51.992;9.228;2023-02-26T11:57:50;101065.94;;;7.79;55.68
21504;BME280;10913;51.992;9.228;2023-02-26T12:00:41;101051.75;;;7.71;54.95
21504;BME280;10913;51.992;9.228;2023-02-26T12:03:21;101053.09;;;7.99;55.51
21504;BME280;10913;51.992;9.228;2023-02-26T12:05:50;101054.63;;;7.86;55.16
21504;BME280;10913;51.992;9.228;2023-02-26T12:21:54;101064.88;;;7.70;57.11
21504;BME280;10913;51.992;9.228;2023-02-26T12:29:43;101069.59;;;7.41;56.18
21504;BME280;10913;51.992;9.228;2023-02-26T12:32:35;101069.38;;;7.29;56.55
21504;BME280;10913;51.992;9.228;2023-02-26T12:43:08;101074.59;;;7.74;55.83
21504;BME280;10913;51.992;9.228;2023-02-26T12:49:03;101072.41;;;8.01;55.04
21504;BME280;10913;51.992;9.228;2023-02-26T13:00:39;101074.84;;;7.41;55.79
21504;BME280;10913;51.992;9.228;2023-02-26T13:08:49;101079.00;;;7.28;55.56
21504;BME280;10913;51.992;9.228;2023-02-26T13:17:35;101075.38;;;7.68;54.25
21504;BME280;10913;51.992;9.228;2023-02-26T13:20:15;101078.06;;;7.71;56.09
21504;BME280;10913;51.992;9.228;2023-02-26T13:22:46;101075.38;;;7.68;55.35
21504;BME280;10913;51.992;9.228;2023-02-26T13:25:17;101070.84;;;7.61;55.11
21504;BME280;10913;51.992;9.228;2023-02-26T13:27:44;101073.38;;;7.55;54.91
21504;BME280;10913;51.992;9.228;2023-02-26T13:30:27;101074.19;;;7.51;55.72
21504;BME280;10913;51.992;9.228;2023-02-26T13:32:56;101064.03;;;7.72;55.64
21504;BME280;10913;51.992;9.228;2023-02-26T13:35:32;101068.56;;;7.81;55.54
21504;BME280;10913;51.992;9.228;2023-02-26T13:38:01;101067.03;;;7.93;55.19
21504;BME280;10913;51.992;9.228;2023-02-26T13:40:37;101064.41;;;7.93;52.92
21504;BME280;10913;51.992;9.228;2023-02-26T13:46:25;101057.28;;;7.88;54.91
21504;BME280;10913;51.992;9.228;2023-02-26T13:51:45;101048.63;;;7.93;56.26
21504;BME280;10913;51.992;9.228;2023-02-26T13:59:46;101060.06;;;7.46;56.55
21504;BME280;10913;51.992;9.228;2023-02-26T14:04:53;101060.97;;;7.48;56.07
21504;BME280;10913;51.992;9.228;2023-02-26T14:08:07;101054.94;;;7.52;56.63
21504;BME280;10913;51.992;9.228;2023-02-26T14:11:01;101059.34;;;7.54;56.11
21504;BME280;10913;51.992;9.228;2023-02-26T14:16:34;101067.16;;;7.50;53.99
21504;BME280;10913;51.992;9.228;2023-02-26T14:19:13;101056.25;;;7.29;53.87
21504;BME280;10913;51.992;9.228;2023-02-26T14:24:34;101061.16;;;7.10;54.27
21504;BME280;10913;51.992;9.228;2023-02-26T14:30:02;101076.06;;;7.11;54.16
21504;BME280;10913;51.992;9.228;2023-02-26T14:35:05;101069.28;;;7.24;53.37
21504;BME280;10913;51.992;9.228;2023-02-26T14:37:35;101068.53;;;7.30;54.41
21504;BME280;10913;51.992;9.228;2023-02-26T14:40:14;101067.47;;;7.21;54.24
21504;BME280;10913;51.992;9.228;2023-02-26T14:47:44;101065.72;;;7.20;55.57
21504;BME280;10913;51.992;9.228;2023-02-26T14:50:18;101069.31;;;7.25;55.69
21504;BME280;10913;51.992;9.228;2023-02-26T14:53:33;101079.47;;;7.07;56.76
21504;BME280;10913;51.992;9.228;2023-02-26T14:58:58;101080.19;;;7.00;56.17
21504;BME280;10913;51.992;9.228;2023-02-26T15:04:43;101077.88;;;7.14;56.10
21504;BME280;10913;51.992;9.228;2023-02-26T15:07:23;101075.22;;;7.12;55.12
21504;BME280;10913;51.992;9.228;2023-02-26T15:10:21;101079.72;;;7.18;55.82
21504;BME280;10913;51.992;9.228;2023-02-26T15:13:29;101081.22;;;7.07;55.45
21504;BME280;10913;51.992;9.228;2023-02-26T15:24:12;101091.41;;;6.91;55.79
21504;BME280;10913;51.992;9.228;2023-02-26T15:26:46;101088.84;;;6.93;56.33
21504;BME280;10913;51.992;9.228;2023-02-26T15:29:13;101090.44;;;6.86;56.73
21504;BME280;10913;51.992;9.228;2023-02-26T15:31:49;101091.22;;;6.82;56.88
21504;BME280;10913;51.992;9.228;2023-02-26T15:34:19;101086.72;;;6.75;56.66
21504;BME280;10913;51.992;9.228;2023-02-26T15:36:48;101092.84;;;6.76;56.97
21504;BME280;10913;51.992;9.228;2023-02-26T15:39:16;101095.19;;;6.64;57.81
21504;BME280;10913;51.992;9.228;2023-02-26T15:41:43;101097.50;;;6.50;57.04
21504;BME280;10913;51.992;9.228;2023-02-26T15:44:14;101103.22;;;6.32;57.66
21504;BME280;10913;51.992;9.228;2023-02-26T15:46:43;101109.25;;;6.28;57.96
21504;BME280;10913;51.992;9.228;2023-02-26T15:49:39;101112.69;;;6.26;57.87
21504;BME280;10913;51.992;9.228;2023-02-26T15:52:08;101114.31;;;6.20;58.07